sensor_id;sensor_type;location;lat;lon;timestamp;P1;durP1;ratioP1;P2;durP2;ratioP2
37891;SDS011;45797;47.466;9.486;2024-01-15T00:04:29;1.75;;;0.50;;
37891;SDS011;45797;47.466;9.486;2024-01-15T00:09:50;1.37;;;0.57;;
37891;SDS011;45797;47.466;9.486;2024-01-15T00:15:11;1.77;;;0.80;;
37891;SDS011;45797;47.466;9.486;2024-01-15T00:20:35;3.45;;;0.50;;
37891;SDS011;45797;47.466;9.486;2024-01-15T00:26:03;1.75;;;0.50;;
37891;SDS011;45797;47.466;9.486;2024-01-15T00:31:24;0.80;;;0.50;;
37891;SDS011;45797;47.466;9.486;2024-01-15T00:36:47;1.63;;;0.60;;
37891;SDS011;45797;47.466;9.486;2024-01-15T00:42:07;0.68;;;0.50;;
37891;SDS011;45797;47.466;9.486;2024-01-15T00:47:29;0.83;;;0.40;;
37891;SDS011;45797;47.466;9.486;2024-01-15T00:52:59;1.13;;;0.60;;
37891;SDS011;45797;47.466;9.486;2024-01-15T00:58:20;1.15;;;0.63;;
37891;SDS011;45797;47.466;9.486;2024-01-15T01:03:41;1.77;;;0.65;;
37891;SDS011;45797;47.466;9.486;2024-01-15T01:19:49;1.60;;;0.75;;
37891;SDS011;45797;47.466;9.486;2024-01-15T01:25:10;2.00;;;0.80;;
37891;SDS011;45797;47.466;9.486;2024-01-15T01:30:32;1.17;;;0.60;;
37891;SDS011;45797;47.466;9.486;2024-01-15T01:35:53;2.08;;;1.00;;
37891;SDS011;45797;47.466;9.486;2024-01-15T01:41:14;2.85;;;1.05;;
37891;SDS011;45797;47.466;9.486;2024-01-15T01:46:36;2.80;;;0.80;;
37891;SDS011;45797;47.466;9.486;2024-01-15T01:52:01;3.58;;;1.25;;
37891;SDS011;45797;47.466;9.486;2024-01-15T01:57:25;6.00;;;2.17;;
37891;SDS011;45797;47.466;9.486;2024-01-15T02:02:45;3.80;;;1.70;;
37891;SDS011;45797;47.466;9.486;2024-01-15T02:08:06;5.63;;;1.60;;
37891;SDS011;45797;47.466;9.486;2024-01-15T02:13:43;6.13;;;2.07;;
37891;SDS011;45797;47.466;9.486;2024-01-15T02:19:05;3.40;;;1.30;;
37891;SDS011;45797;47.466;9.486;2024-01-15T02:24:26;5.43;;;1.63;;
37891;SDS011;45797;47.466;9.486;2024-01-15T02:29:48;3.97;;;1.58;;
37891;SDS011;45797;47.466;9.486;2024-01-15T02:35:09;6.70;;;2.00;;
37891;SDS011;45797;47.466;9.486;2024-01-15T02:40:37;4.80;;;2.20;;
37891;SDS011;45797;47.466;9.486;2024-01-15T02:45:58;4.83;;;2.00;;
37891;SDS011;45797;47.466;9.486;2024-01-15T02:51:28;7.07;;;2.23;;
37891;SDS011;45797;47.466;9.486;2024-01-15T02:56:49;9.17;;;3.70;;
37891;SDS011;45797;47.466;9.486;2024-01-15T03:02:20;12.90;;;3.70;;
37891;SDS011;45797;47.466;9.486;2024-01-15T03:07:43;12.80;;;4.10;;
37891;SDS011;45797;47.466;9.486;2024-01-15T03:13:04;9.90;;;2.70;;
37891;SDS011;45797;47.466;9.486;2024-01-15T03:18:25;10.13;;;3.10;;
37891;SDS011;45797;47.466;9.486;2024-01-15T03:23:47;5.30;;;2.77;;
37891;SDS011;45797;47.466;9.486;2024-01-15T03:29:09;6.57;;;2.80;;
37891;SDS011;45797;47.466;9.486;2024-01-15T03:34:30;8.67;;;3.23;;
37891;SDS011;45797;47.466;9.486;2024-01-15T03:40:07;11.03;;;3.27;;
37891;SDS011;45797;47.466;9.486;2024-01-15T03:45:29;7.57;;;3.27;;
37891;SDS011;45797;47.466;9.486;2024-01-15T04:01:48;6.50;;;2.77;;
37891;SDS011;45797;47.466;9.486;2024-01-15T04:07:13;5.70;;;2.17;;
37891;SDS011;45797;47.466;9.486;2024-01-15T04:12:34;7.43;;;3.37;;
37891;SDS011;45797;47.466;9.486;2024-01-15T04:18:02;7.07;;;2.73;;
37891;SDS011;45797;47.466;9.486;2024-01-15T04:23:25;4.30;;;2.43;;
37891;SDS011;45797;47.466;9.486;2024-01-15T04:28:46;8.50;;;2.87;;
37891;SDS011;45797;47.466;9.486;2024-01-15T04:34:07;11.13;;;2.73;;
37891;SDS011;45797;47.466;9.486;2024-01-15T04:39:28;8.13;;;2.40;;
37891;SDS011;45797;47.466;9.486;2024-01-15T04:44:51;5.30;;;2.43;;
37891;SDS011;45797;47.466;9.486;2024-01-15T04:55:59;6.13;;;1.83;;
37891;SDS011;45797;47.466;9.486;2024-01-15T05:07:09;3.13;;;1.17;;
37891;SDS011;45797;47.466;9.486;2024-01-15T05:12:31;3.27;;;1.10;;
37891;SDS011;45797;47.466;9.486;2024-01-15T05:18:07;4.83;;;1.57;;
37891;SDS011;45797;47.466;9.486;2024-01-15T05:23:27;4.53;;;1.30;;
37891;SDS011;45797;47.466;9.486;2024-01-15T05:28:58;3.60;;;1.73;;
37891;SDS011;45797;47.466;9.486;2024-01-15T05:45:21;4.30;;;1.60;;
37891;SDS011;45797;47.466;9.486;2024-01-15T05:50:42;4.60;;;1.30;;
37891;SDS011;45797;47.466;9.486;2024-01-15T05:56:13;3.20;;;1.37;;
37891;SDS011;45797;47.466;9.486;2024-01-15T06:01:33;2.83;;;1.47;;
37891;SDS011;45797;47.466;9.486;2024-01-15T06:07:05;3.57;;;1.27;;
37891;SDS011;45797;47.466;9.486;2024-01-15T06:12:34;8.17;;;1.50;;
37891;SDS011;45797;47.466;9.486;2024-01-15T06:23:19;2.27;;;1.07;;
37891;SDS011;45797;47.466;9.486;2024-01-15T06:28:41;2.17;;;1.10;;
37891;SDS011;45797;47.466;9.486;2024-01-15T06:34:07;3.13;;;1.10;;
37891;SDS011;45797;47.466;9.486;2024-01-15T06:39:35;3.30;;;1.20;;
37891;SDS011;45797;47.466;9.486;2024-01-15T06:45:02;4.10;;;1.30;;
37891;SDS011;45797;47.466;9.486;2024-01-15T06:50:23;7.10;;;2.00;;
37891;SDS011;45797;47.466;9.486;2024-01-15T06:55:45;3.60;;;1.50;;
37891;SDS011;45797;47.466;9.486;2024-01-15T07:01:07;4.10;;;1.30;;
37891;SDS011;45797;47.466;9.486;2024-01-15T07:06:28;6.03;;;1.60;;
37891;SDS011;45797;47.466;9.486;2024-01-15T07:11:59;2.23;;;0.83;;
37891;SDS011;45797;47.466;9.486;2024-01-15T07:17:20;2.83;;;1.20;;
37891;SDS011;45797;47.466;9.486;2024-01-15T07:28:17;8.57;;;1.80;;
37891;SDS011;45797;47.466;9.486;2024-01-15T07:33:38;5.27;;;1.47;;
37891;SDS011;45797;47.466;9.486;2024-01-15T07:38:58;2.77;;;1.50;;
37891;SDS011;45797;47.466;9.486;2024-01-15T07:44:20;5.30;;;1.43;;
37891;SDS011;45797;47.466;9.486;2024-01-15T07:49:40;1.57;;;1.00;;
37891;SDS011;45797;47.466;9.486;2024-01-15T07:55:01;3.80;;;1.60;;
37891;SDS011;45797;47.466;9.486;2024-01-15T08:11:20;3.40;;;1.50;;
37891;SDS011;45797;47.466;9.486;2024-01-15T08:16:41;2.00;;;1.07;;
37891;SDS011;45797;47.466;9.486;2024-01-15T08:22:01;6.67;;;2.03;;
37891;SDS011;45797;47.466;9.486;2024-01-15T08:27:24;4.50;;;1.63;;
37891;SDS011;45797;47.466;9.486;2024-01-15T08:32:44;2.90;;;1.20;;
37891;SDS011;45797;47.466;9.486;2024-01-15T08:38:06;3.83;;;1.73;;
37891;SDS011;45797;47.466;9.486;2024-01-15T08:43:29;3.30;;;1.67;;
37891;SDS011;45797;47.466;9.486;2024-01-15T08:48:52;3.33;;;0.90;;
37891;SDS011;45797;47.466;9.486;2024-01-15T08:59:40;3.30;;;1.50;;
37891;SDS011;45797;47.466;9.486;2024-01-15T09:21:13;3.07;;;1.30;;
37891;SDS011;45797;47.466;9.486;2024-01-15T09:26:34;2.83;;;1.60;;
37891;SDS011;45797;47.466;9.486;2024-01-15T09:31:56;2.60;;;1.30;;
37891;SDS011;45797;47.466;9.486;2024-01-15T09:37:16;8.30;;;1.60;;
37891;SDS011;45797;47.466;9.486;2024-01-15T09:42:39;1.73;;;1.10;;
37891;SDS011;45797;47.466;9.486;2024-01-15T09:48:14;4.60;;;1.67;;
37891;SDS011;45797;47.466;9.486;2024-01-15T09:53:35;3.93;;;1.27;;
37891;SDS011;45797;47.466;9.486;2024-01-15T09:58:59;3.43;;;1.30;;
37891;SDS011;45797;47.466;9.486;2024-01-15T10:04:20;1.93;;;0.90;;
37891;SDS011;45797;47.466;9.486;2024-01-15T10:09:43;3.27;;;1.73;;
37891;SDS011;45797;47.466;9.486;2024-01-15T10:15:14;3.23;;;1.23;;
37891;SDS011;45797;47.466;9.486;2024-01-15T10:26:24;2.57;;;1.17;;
37891;SDS011;45797;47.466;9.486;2024-01-15T10:37:16;2.47;;;1.20;;
37891;SDS011;45797;47.466;9.486;2024-01-15T10:42:37;1.80;;;1.00;;
37891;SDS011;45797;47.466;9.486;2024-01-15T10:47:57;1.90;;;0.93;;
37891;SDS011;45797;47.466;9.486;2024-01-15T10:53:18;3.77;;;1.20;;
37891;SDS011;45797;47.466;9.486;2024-01-15T11:04:13;2.87;;;0.60;;
37891;SDS011;45797;47.466;9.486;2024-01-15T11:09:34;2.20;;;0.80;;
37891;SDS011;45797;47.466;9.486;2024-01-15T11:15:06;2.00;;;0.70;;
37891;SDS011;45797;47.466;9.486;2024-01-15T11:20:30;3.50;;;0.60;;
37891;SDS011;45797;47.466;9.486;2024-01-15T11:25:52;3.03;;;1.10;;
37891;SDS011;45797;47.466;9.486;2024-01-15T11:31:14;1.77;;;0.80;;
37891;SDS011;45797;47.466;9.486;2024-01-15T11:42:22;1.73;;;0.90;;
37891;SDS011;45797;47.466;9.486;2024-01-15T12:04:37;1.97;;;0.90;;
37891;SDS011;45797;47.466;9.486;2024-01-15T12:09:59;1.87;;;0.70;;
37891;SDS011;45797;47.466;9.486;2024-01-15T12:15:20;1.97;;;0.83;;
37891;SDS011;45797;47.466;9.486;2024-01-15T12:20:41;2.20;;;1.00;;
37891;SDS011;45797;47.466;9.486;2024-01-15T12:26:03;3.40;;;0.73;;
37891;SDS011;45797;47.466;9.486;2024-01-15T12:31:24;0.93;;;0.53;;
37891;SDS011;45797;47.466;9.486;2024-01-15T12:36:46;6.93;;;1.27;;
37891;SDS011;45797;47.466;9.486;2024-01-15T12:42:08;1.87;;;0.73;;
37891;SDS011;45797;47.466;9.486;2024-01-15T12:53:01;3.13;;;1.20;;
37891;SDS011;45797;47.466;9.486;2024-01-15T13:04:03;2.43;;;1.13;;
37891;SDS011;45797;47.466;9.486;2024-01-15T13:09:32;1.30;;;0.70;;
37891;SDS011;45797;47.466;9.486;2024-01-15T13:14:53;1.00;;;0.50;;
37891;SDS011;45797;47.466;9.486;2024-01-15T13:20:13;4.67;;;0.87;;
37891;SDS011;45797;47.466;9.486;2024-01-15T13:25:34;3.53;;;1.07;;
37891;SDS011;45797;47.466;9.486;2024-01-15T13:30:57;3.00;;;1.30;;
37891;SDS011;45797;47.466;9.486;2024-01-15T13:41:43;2.57;;;0.90;;
37891;SDS011;45797;47.466;9.486;2024-01-15T13:47:11;0.57;;;0.40;;
37891;SDS011;45797;47.466;9.486;2024-01-15T13:52:33;2.13;;;0.90;;
37891;SDS011;45797;47.466;9.486;2024-01-15T13:57:55;2.27;;;0.80;;
37891;SDS011;45797;47.466;9.486;2024-01-15T14:03:16;2.80;;;0.87;;
37891;SDS011;45797;47.466;9.486;2024-01-15T14:08:36;3.73;;;1.20;;
37891;SDS011;45797;47.466;9.486;2024-01-15T14:14:15;1.93;;;0.90;;
37891;SDS011;45797;47.466;9.486;2024-01-15T14:19:37;1.80;;;0.80;;
37891;SDS011;45797;47.466;9.486;2024-01-15T14:24:58;2.17;;;0.97;;
37891;SDS011;45797;47.466;9.486;2024-01-15T14:30:19;1.70;;;0.60;;
37891;SDS011;45797;47.466;9.486;2024-01-15T14:35:39;4.70;;;0.97;;
37891;SDS011;45797;47.466;9.486;2024-01-15T14:41:01;2.17;;;0.93;;
37891;SDS011;45797;47.466;9.486;2024-01-15T14:51:47;2.13;;;1.00;;
37891;SDS011;45797;47.466;9.486;2024-01-15T15:02:35;2.90;;;1.20;;
37891;SDS011;45797;47.466;9.486;2024-01-15T15:07:58;1.90;;;0.97;;
37891;SDS011;45797;47.466;9.486;2024-01-15T15:13:18;2.60;;;1.17;;
37891;SDS011;45797;47.466;9.486;2024-01-15T15:18:49;3.70;;;1.00;;
37891;SDS011;45797;47.466;9.486;2024-01-15T15:24:14;2.10;;;1.00;;
37891;SDS011;45797;47.466;9.486;2024-01-15T15:29:36;2.07;;;1.00;;
37891;SDS011;45797;47.466;9.486;2024-01-15T15:40:23;2.47;;;1.17;;
37891;SDS011;45797;47.466;9.486;2024-01-15T15:45:46;3.07;;;1.40;;
37891;SDS011;45797;47.466;9.486;2024-01-15T15:51:09;3.70;;;1.40;;
37891;SDS011;45797;47.466;9.486;2024-01-15T15:56:29;6.83;;;1.90;;
37891;SDS011;45797;47.466;9.486;2024-01-15T16:07:21;9.33;;;2.30;;
37891;SDS011;45797;47.466;9.486;2024-01-15T16:24:19;4.87;;;1.50;;
37891;SDS011;45797;47.466;9.486;2024-01-15T16:29:45;5.57;;;2.27;;
37891;SDS011;45797;47.466;9.486;2024-01-15T16:35:15;2.30;;;1.20;;
37891;SDS011;45797;47.466;9.486;2024-01-15T16:40:37;5.60;;;2.00;;
37891;SDS011;45797;47.466;9.486;2024-01-15T16:46:00;5.70;;;2.77;;
37891;SDS011;45797;47.466;9.486;2024-01-15T16:51:21;5.43;;;2.43;;
37891;SDS011;45797;47.466;9.486;2024-01-15T16:56:41;8.30;;;2.70;;
37891;SDS011;45797;47.466;9.486;2024-01-15T17:02:02;5.90;;;2.70;;
37891;SDS011;45797;47.466;9.486;2024-01-15T17:07:25;7.07;;;2.20;;
37891;SDS011;45797;47.466;9.486;2024-01-15T17:12:47;7.37;;;2.50;;
37891;SDS011;45797;47.466;9.486;2024-01-15T17:18:12;8.83;;;3.37;;
37891;SDS011;45797;47.466;9.486;2024-01-15T17:23:32;6.97;;;2.63;;
37891;SDS011;45797;47.466;9.486;2024-01-15T17:28:54;5.63;;;3.00;;
37891;SDS011;45797;47.466;9.486;2024-01-15T17:39:39;6.93;;;2.80;;
37891;SDS011;45797;47.466;9.486;2024-01-15T17:45:01;7.57;;;3.03;;
37891;SDS011;45797;47.466;9.486;2024-01-15T17:50:25;6.43;;;2.50;;
37891;SDS011;45797;47.466;9.486;2024-01-15T17:55:48;6.90;;;2.33;;
37891;SDS011;45797;47.466;9.486;2024-01-15T18:01:09;7.90;;;2.80;;
37891;SDS011;45797;47.466;9.486;2024-01-15T18:06:32;6.27;;;2.20;;
37891;SDS011;45797;47.466;9.486;2024-01-15T18:11:54;11.23;;;2.57;;
37891;SDS011;45797;47.466;9.486;2024-01-15T18:17:29;8.57;;;2.33;;
37891;SDS011;45797;47.466;9.486;2024-01-15T18:22:52;4.50;;;1.70;;
37891;SDS011;45797;47.466;9.486;2024-01-15T18:28:25;3.40;;;1.47;;
37891;SDS011;45797;47.466;9.486;2024-01-15T18:33:46;6.07;;;1.97;;
37891;SDS011;45797;47.466;9.486;2024-01-15T18:39:08;3.77;;;1.70;;
37891;SDS011;45797;47.466;9.486;2024-01-15T18:44:36;3.40;;;1.40;;
37891;SDS011;45797;47.466;9.486;2024-01-15T18:50:04;3.40;;;1.60;;
37891;SDS011;45797;47.466;9.486;2024-01-15T18:55:27;4.47;;;1.57;;
37891;SDS011;45797;47.466;9.486;2024-01-15T19:00:50;5.40;;;1.80;;
37891;SDS011;45797;47.466;9.486;2024-01-15T19:06:12;2.87;;;1.57;;
37891;SDS011;45797;47.466;9.486;2024-01-15T19:11:41;2.93;;;1.00;;
37891;SDS011;45797;47.466;9.486;2024-01-15T19:28:02;1.80;;;1.33;;
37891;SDS011;45797;47.466;9.486;2024-01-15T19:33:24;1.87;;;0.87;;
37891;SDS011;45797;47.466;9.486;2024-01-15T19:38:45;1.90;;;1.10;;
37891;SDS011;45797;47.466;9.486;2024-01-15T19:44:06;3.17;;;1.30;;
37891;SDS011;45797;47.466;9.486;2024-01-15T19:55:25;2.37;;;1.40;;
37891;SDS011;45797;47.466;9.486;2024-01-15T20:00:46;2.60;;;1.30;;
37891;SDS011;45797;47.466;9.486;2024-01-15T20:06:07;2.80;;;1.10;;
37891;SDS011;45797;47.466;9.486;2024-01-15T20:16:58;2.20;;;0.90;;
37891;SDS011;45797;47.466;9.486;2024-01-15T20:27:45;3.33;;;1.83;;
37891;SDS011;45797;47.466;9.486;2024-01-15T20:33:06;2.37;;;1.33;;
37891;SDS011;45797;47.466;9.486;2024-01-15T20:38:28;5.93;;;1.20;;
37891;SDS011;45797;47.466;9.486;2024-01-15T20:43:48;2.70;;;1.33;;
37891;SDS011;45797;47.466;9.486;2024-01-15T20:49:17;4.83;;;1.23;;
37891;SDS011;45797;47.466;9.486;2024-01-15T20:54:40;2.37;;;1.10;;
37891;SDS011;45797;47.466;9.486;2024-01-15T21:10:54;2.90;;;1.43;;
37891;SDS011;45797;47.466;9.486;2024-01-15T21:16:15;2.53;;;1.17;;
37891;SDS011;45797;47.466;9.486;2024-01-15T21:21:38;1.13;;;0.67;;
37891;SDS011;45797;47.466;9.486;2024-01-15T21:27:10;7.97;;;1.90;;
37891;SDS011;45797;47.466;9.486;2024-01-15T21:32:32;3.47;;;1.67;;
37891;SDS011;45797;47.466;9.486;2024-01-15T21:37:59;2.80;;;1.30;;
37891;SDS011;45797;47.466;9.486;2024-01-15T21:43:28;2.30;;;1.20;;
37891;SDS011;45797;47.466;9.486;2024-01-15T21:48:56;4.17;;;1.80;;
37891;SDS011;45797;47.466;9.486;2024-01-15T21:59:50;4.33;;;1.43;;
37891;SDS011;45797;47.466;9.486;2024-01-15T22:05:11;3.67;;;1.43;;
37891;SDS011;45797;47.466;9.486;2024-01-15T22:10:32;4.77;;;1.73;;
37891;SDS011;45797;47.466;9.486;2024-01-15T22:15:54;5.73;;;2.17;;
37891;SDS011;45797;47.466;9.486;2024-01-15T22:21:15;3.07;;;1.50;;
37891;SDS011;45797;47.466;9.486;2024-01-15T22:32:16;5.63;;;1.77;;
37891;SDS011;45797;47.466;9.486;2024-01-15T22:37:43;4.53;;;1.80;;
37891;SDS011;45797;47.466;9.486;2024-01-15T22:48:28;5.47;;;1.77;;
37891;SDS011;45797;47.466;9.486;2024-01-15T22:53:49;2.83;;;1.30;;
37891;SDS011;45797;47.466;9.486;2024-01-15T22:59:11;2.93;;;1.47;;
37891;SDS011;45797;47.466;9.486;2024-01-15T23:04:37;3.60;;;1.43;;
37891;SDS011;45797;47.466;9.486;2024-01-15T23:15:26;4.47;;;1.87;;
37891;SDS011;45797;47.466;9.486;2024-01-15T23:20:48;4.23;;;1.50;;
37891;SDS011;45797;47.466;9.486;2024-01-15T23:31:49;3.43;;;1.40;;
37891;SDS011;45797;47.466;9.486;2024-01-15T23:42:36;2.17;;;1.07;;
37891;SDS011;45797;47.466;9.486;2024-01-15T23:47:57;3.87;;;1.10;;
37891;SDS011;45797;47.466;9.486;2024-01-15T23:53:18;4.30;;;1.73;;
37891;SDS011;45797;47.466;9.486;2024-01-15T23:58:51;3.00;;;1.33;;
